createdAt,value
2019-03-04T00:00:35.828Z,0.00
2019-03-04T00:01:35.819Z,0.00
2019-03-04T00:02:35.819Z,0.00
2019-03-04T00:03:35.829Z,0.00
2019-03-04T00:04:35.789Z,0.00
2019-03-04T00:05:35.778Z,0.00
2019-03-04T00:06:35.767Z,0.00
2019-03-04T00:07:35.759Z,0.00
2019-03-04T00:08:35.774Z,0.00
2019-03-04T00:09:35.736Z,0.00
2019-03-04T00:10:35.731Z,0.00
2019-03-04T00:11:35.717Z,0.00
2019-03-04T00:12:35.704Z,0.00
2019-03-04T00:13:35.720Z,0.00
2019-03-04T00:14:35.683Z,0.00
2019-03-04T00:15:35.673Z,0.00
2019-03-04T00:16:35.674Z,0.00
2019-03-04T00:17:35.657Z,0.00
2019-03-04T00:18:35.666Z,0.00
2019-03-04T00:19:35.636Z,0.00
2019-03-04T00:20:35.656Z,0.00
2019-03-04T00:21:35.609Z,0.00
2019-03-04T00:22:35.607Z,0.00
2019-03-04T00:23:35.632Z,0.00
2019-03-04T00:24:35.579Z,0.00
2019-03-04T00:25:35.572Z,0.00
2019-03-04T00:26:35.581Z,0.00
2019-03-04T00:27:43.351Z,0.00
2019-03-04T00:28:35.561Z,0.00
2019-03-04T00:29:35.524Z,0.00
2019-03-04T00:30:35.531Z,0.00
2019-03-04T00:31:35.511Z,0.00
2019-03-04T00:32:35.498Z,0.00
2019-03-04T00:33:35.511Z,0.00
2019-03-04T00:34:35.475Z,0.00
2019-03-04T00:35:35.471Z,0.00
2019-03-04T00:36:35.454Z,0.00
2019-03-04T00:37:35.445Z,0.00
2019-03-04T00:38:35.488Z,0.00
2019-03-04T00:39:35.415Z,0.00
2019-03-04T00:40:35.408Z,0.00
2019-03-04T00:41:35.401Z,0.00
2019-03-04T00:42:35.388Z,0.00
2019-03-04T00:43:35.407Z,0.00
2019-03-04T00:44:35.366Z,0.00
2019-03-04T00:45:35.372Z,0.00
2019-03-04T00:46:35.356Z,0.00
2019-03-04T00:47:35.344Z,0.00
2019-03-04T00:48:35.360Z,0.00
2019-03-04T00:49:35.315Z,0.00
2019-03-04T00:50:35.305Z,0.00
2019-03-04T00:51:35.300Z,0.00
2019-03-04T00:52:35.288Z,0.00
2019-03-04T00:53:35.297Z,0.00
2019-03-04T00:54:35.265Z,0.00
2019-03-04T00:55:35.254Z,0.00
2019-03-04T00:56:35.240Z,0.00
2019-03-04T00:57:35.227Z,0.00
2019-03-04T00:58:35.245Z,0.00
2019-03-04T00:59:35.213Z,0.00
2019-03-04T01:00:35.194Z,0.00
2019-03-04T01:01:35.183Z,0.00
2019-03-04T01:02:35.170Z,0.00
2019-03-04T01:03:35.212Z,0.00
2019-03-04T01:04:35.153Z,0.00
2019-03-04T01:05:35.137Z,0.00
2019-03-04T01:06:35.130Z,0.00
2019-03-04T01:07:35.117Z,0.00
2019-03-04T01:08:35.144Z,0.00
2019-03-04T01:09:35.095Z,0.00
2019-03-04T01:10:35.089Z,0.00
2019-03-04T01:11:35.072Z,0.00
2019-03-04T01:12:35.059Z,0.00
2019-03-04T01:13:35.051Z,0.00
2019-03-04T01:14:35.070Z,0.00
2019-03-04T01:15:35.029Z,0.00
2019-03-04T01:16:35.021Z,0.00
2019-03-04T01:17:35.002Z,0.00
2019-03-04T01:18:35.048Z,0.00
2019-03-04T01:19:35.007Z,0.00
2019-03-04T01:20:34.971Z,0.00
2019-03-04T01:21:34.962Z,0.00
2019-03-04T01:22:34.956Z,0.00
2019-03-04T01:23:34.942Z,0.00
2019-03-04T01:24:34.958Z,0.00
2019-03-04T01:25:34.919Z,0.00
2019-03-04T01:26:34.912Z,0.00
2019-03-04T01:27:34.905Z,0.00
2019-03-04T01:28:34.886Z,0.00
2019-03-04T01:29:34.901Z,0.00
2019-03-04T01:30:34.864Z,0.00
2019-03-04T01:31:34.857Z,0.00
2019-03-04T01:32:34.853Z,0.00
2019-03-04T01:33:34.832Z,0.00
2019-03-04T01:34:34.847Z,0.00
2019-03-04T01:35:34.807Z,0.00
2019-03-04T01:36:34.795Z,0.00
2019-03-04T01:37:34.790Z,0.00
2019-03-04T01:38:34.779Z,0.00
2019-03-04T01:39:34.789Z,0.00
2019-03-04T01:40:34.755Z,0.00
2019-03-04T01:41:34.747Z,0.00
2019-03-04T01:42:34.730Z,0.00
2019-03-04T01:43:34.725Z,0.00
2019-03-04T01:44:34.736Z,0.00
2019-03-04T01:45:34.702Z,0.00
2019-03-04T01:46:34.692Z,0.00
2019-03-04T01:47:34.675Z,0.00
2019-03-04T01:48:34.668Z,0.00
2019-03-04T01:49:34.683Z,0.00
2019-03-04T01:50:34.645Z,0.00
2019-03-04T01:51:34.632Z,0.00
2019-03-04T01:52:34.623Z,0.00
2019-03-04T01:53:34.635Z,0.00
2019-03-04T01:54:34.627Z,0.00
2019-03-04T01:55:34.601Z,0.00
2019-03-04T01:56:34.580Z,0.00
2019-03-04T01:57:34.569Z,0.00
2019-03-04T01:58:34.563Z,0.00
2019-03-04T01:59:34.583Z,0.00
2019-03-04T02:00:34.537Z,0.00
2019-03-04T02:01:34.527Z,0.00
2019-03-04T02:02:34.510Z,0.00
2019-03-04T02:03:34.500Z,0.00
2019-03-04T02:04:34.515Z,0.00
2019-03-04T02:05:34.485Z,0.00
2019-03-04T02:06:34.468Z,0.00
2019-03-04T02:07:34.462Z,0.00
2019-03-04T02:08:34.448Z,0.00
2019-03-04T02:09:34.455Z,0.00
2019-03-04T02:10:34.424Z,0.00
2019-03-04T02:11:34.413Z,0.00
2019-03-04T02:12:34.403Z,0.00
2019-03-04T02:13:34.393Z,0.00
2019-03-04T02:14:34.406Z,0.00
2019-03-04T02:15:34.371Z,0.00
2019-03-04T02:16:34.366Z,0.00
2019-03-04T02:17:34.354Z,0.00
2019-03-04T02:18:34.337Z,0.00
2019-03-04T02:19:34.359Z,0.00
2019-03-04T02:20:34.315Z,0.00
2019-03-04T02:21:34.307Z,0.00
2019-03-04T02:22:34.295Z,0.00
2019-03-04T02:23:34.292Z,0.00
2019-03-04T02:24:34.299Z,0.00
2019-03-04T02:25:34.268Z,0.00
2019-03-04T02:26:34.261Z,0.00
2019-03-04T02:27:34.246Z,0.00
2019-03-04T02:28:34.235Z,0.00
2019-03-04T02:29:34.250Z,0.00
2019-03-04T02:30:34.216Z,0.00
2019-03-04T02:31:34.201Z,0.00
2019-03-04T02:32:34.190Z,0.00
2019-03-04T02:33:34.180Z,0.00
2019-03-04T02:34:34.196Z,0.00
2019-03-04T02:35:34.158Z,0.00
2019-03-04T02:36:34.148Z,0.00
2019-03-04T02:37:34.132Z,0.00
2019-03-04T02:38:34.239Z,0.00
2019-03-04T02:39:34.231Z,0.00
2019-03-04T02:40:34.153Z,0.00
2019-03-04T02:41:34.105Z,0.00
2019-03-04T02:42:34.142Z,0.00
2019-03-04T02:43:34.225Z,0.00
2019-03-04T02:44:34.083Z,0.00
2019-03-04T02:45:34.044Z,0.00
2019-03-04T02:46:34.033Z,0.00
2019-03-04T02:47:34.032Z,0.00
2019-03-04T02:48:34.014Z,0.00
2019-03-04T02:49:34.030Z,0.00
2019-03-04T02:50:33.998Z,0.00
2019-03-04T02:51:33.981Z,0.00
2019-03-04T02:52:33.971Z,0.00
2019-03-04T02:53:33.960Z,0.00
2019-03-04T02:54:33.987Z,0.00
2019-03-04T02:55:33.962Z,0.00
2019-03-04T02:56:33.927Z,0.00
2019-03-04T02:57:33.917Z,0.00
2019-03-04T02:58:33.909Z,0.00
2019-03-04T02:59:33.898Z,0.00
2019-03-04T03:00:33.908Z,0.00
2019-03-04T03:01:33.876Z,0.00
2019-03-04T03:02:33.862Z,0.00
2019-03-04T03:03:33.861Z,0.00
2019-03-04T03:04:33.835Z,0.00
2019-03-04T03:05:33.856Z,0.00
2019-03-04T03:06:33.818Z,0.00
2019-03-04T03:07:33.804Z,0.00
2019-03-04T03:08:33.794Z,0.00
2019-03-04T03:09:33.784Z,0.00
2019-03-04T03:10:33.799Z,0.00
2019-03-04T03:11:33.761Z,0.00
2019-03-04T03:12:33.749Z,0.00
2019-03-04T03:13:33.748Z,0.00
2019-03-04T03:14:33.732Z,0.00
2019-03-04T03:15:33.739Z,0.00
2019-03-04T03:16:33.712Z,0.00
2019-03-04T03:17:33.694Z,0.00
2019-03-04T03:18:33.681Z,0.00
2019-03-04T03:19:33.674Z,0.00
2019-03-04T03:20:33.686Z,0.00
2019-03-04T03:21:33.654Z,0.00
2019-03-04T03:22:33.662Z,0.00
2019-03-04T03:23:33.634Z,0.00
2019-03-04T03:24:33.625Z,0.00
2019-03-04T03:25:33.638Z,0.00
2019-03-04T03:26:33.600Z,0.00
2019-03-04T03:27:33.591Z,0.00
2019-03-04T03:28:33.572Z,0.00
2019-03-04T03:29:33.560Z,0.00
2019-03-04T03:30:33.584Z,0.00
2019-03-04T03:31:33.649Z,0.00
2019-03-04T03:32:33.593Z,0.00
2019-03-04T03:33:33.539Z,0.00
2019-03-04T03:34:33.578Z,0.00
2019-03-04T03:35:33.542Z,0.00
2019-03-04T03:36:33.485Z,0.00
2019-03-04T03:37:33.480Z,0.00
2019-03-04T03:38:33.468Z,0.00
2019-03-04T03:39:33.482Z,0.00
2019-03-04T03:40:33.470Z,0.00
2019-03-04T03:41:33.433Z,0.00
2019-03-04T03:42:33.419Z,0.00
2019-03-04T03:43:33.414Z,0.00
2019-03-04T03:44:33.400Z,0.00
2019-03-04T03:45:33.414Z,0.00
2019-03-04T03:46:33.380Z,0.00
2019-03-04T03:47:33.378Z,0.00
2019-03-04T03:48:33.354Z,0.00
2019-03-04T03:49:33.342Z,0.00
2019-03-04T03:50:33.360Z,0.00
2019-03-04T03:51:33.347Z,0.00
2019-03-04T03:52:33.311Z,0.00
2019-03-04T03:53:33.307Z,0.00
2019-03-04T03:54:33.293Z,0.00
2019-03-04T03:55:33.304Z,0.00
2019-03-04T03:56:33.275Z,0.00
2019-03-04T03:57:33.262Z,0.00
2019-03-04T03:58:33.259Z,0.00
2019-03-04T03:59:33.233Z,0.00
2019-03-04T04:00:33.260Z,0.00
2019-03-04T04:01:33.216Z,0.00
2019-03-04T04:02:33.209Z,0.00
2019-03-04T04:03:33.194Z,0.00
2019-03-04T04:04:33.180Z,0.00
2019-03-04T04:05:33.200Z,0.00
2019-03-04T04:06:33.163Z,0.00
2019-03-04T04:07:33.156Z,0.00
2019-03-04T04:08:33.140Z,0.00
2019-03-04T04:09:33.123Z,0.00
2019-03-04T04:10:33.139Z,0.00
2019-03-04T04:11:33.105Z,0.00
2019-03-04T04:12:33.097Z,0.00
2019-03-04T04:13:33.089Z,0.00
2019-03-04T04:14:33.073Z,0.00
2019-03-04T04:15:33.083Z,0.00
2019-03-04T04:16:33.043Z,0.00
2019-03-04T04:17:33.038Z,0.00
2019-03-04T04:18:33.028Z,0.00
2019-03-04T04:19:33.018Z,0.00
2019-03-04T04:20:33.040Z,0.00
2019-03-04T04:21:32.993Z,0.00
2019-03-04T04:22:33.011Z,0.00
2019-03-04T04:23:32.971Z,0.00
2019-03-04T04:24:32.971Z,0.00
2019-03-04T04:25:32.980Z,0.00
2019-03-04T04:26:32.946Z,0.00
2019-03-04T04:27:32.931Z,0.00
2019-03-04T04:28:32.973Z,0.00
2019-03-04T04:29:32.907Z,0.00
2019-03-04T04:30:32.926Z,0.00
2019-03-04T04:31:33.026Z,0.00
2019-03-04T04:32:32.925Z,0.00
2019-03-04T04:33:32.871Z,0.00
2019-03-04T04:34:32.854Z,0.00
2019-03-04T04:35:32.928Z,0.00
2019-03-04T04:36:32.866Z,0.00
2019-03-04T04:37:32.835Z,0.00
2019-03-04T04:38:32.809Z,0.00
2019-03-04T04:39:32.800Z,0.00
2019-03-04T04:40:32.829Z,0.00
2019-03-04T04:41:32.778Z,0.00
2019-03-04T04:42:32.771Z,0.00
2019-03-04T04:43:32.754Z,0.00
2019-03-04T04:44:32.751Z,0.00
2019-03-04T04:45:32.737Z,0.00
2019-03-04T04:46:32.754Z,0.00
2019-03-04T04:47:32.726Z,0.00
2019-03-04T04:48:32.707Z,0.00
2019-03-04T04:49:32.694Z,0.00
2019-03-04T04:50:32.687Z,0.00
2019-03-04T04:51:32.694Z,0.00
2019-03-04T04:52:32.662Z,0.00
2019-03-04T04:53:32.653Z,0.00
2019-03-04T04:54:32.641Z,0.00
2019-03-04T04:55:32.630Z,0.00
2019-03-04T04:56:32.642Z,0.00
2019-03-04T04:57:32.609Z,0.00
2019-03-04T04:58:32.595Z,0.00
2019-03-04T04:59:32.634Z,0.00
2019-03-04T05:00:32.581Z,0.00
2019-03-04T05:01:32.596Z,0.00
2019-03-04T05:02:32.559Z,0.00
2019-03-04T05:03:32.543Z,0.00
2019-03-04T05:04:32.539Z,0.00
2019-03-04T05:05:32.532Z,0.00
2019-03-04T05:06:32.543Z,0.00
2019-03-04T05:07:32.501Z,0.00
2019-03-04T05:08:32.488Z,0.00
2019-03-04T05:09:32.480Z,0.00
2019-03-04T05:10:32.466Z,0.00
2019-03-04T05:11:32.483Z,0.00
2019-03-04T05:12:32.511Z,0.00
2019-03-04T05:13:32.442Z,0.00
2019-03-04T05:14:32.424Z,0.00
2019-03-04T05:15:32.412Z,0.00
2019-03-04T05:16:32.463Z,0.00
2019-03-04T05:17:32.401Z,0.00
2019-03-04T05:18:32.375Z,0.00
2019-03-04T05:19:32.366Z,0.00
2019-03-04T05:20:32.354Z,0.00
2019-03-04T05:21:32.369Z,0.00
2019-03-04T05:22:32.337Z,0.00
2019-03-04T05:23:32.322Z,0.00
2019-03-04T05:24:32.312Z,0.00
2019-03-04T05:25:32.299Z,0.00
2019-03-04T05:26:32.311Z,0.00
2019-03-04T05:27:32.279Z,0.00
2019-03-04T05:28:32.272Z,0.00
2019-03-04T05:29:32.284Z,0.00
2019-03-04T05:30:32.247Z,0.00
2019-03-04T05:31:32.261Z,0.00
2019-03-04T05:32:32.224Z,0.00
2019-03-04T05:33:32.214Z,0.00
2019-03-04T05:34:32.217Z,0.00
2019-03-04T05:35:32.187Z,0.00
2019-03-04T05:36:32.206Z,0.00
2019-03-04T05:37:32.169Z,0.00
2019-03-04T05:38:32.160Z,0.00
2019-03-04T05:39:32.199Z,0.00
2019-03-04T05:40:32.138Z,0.00
2019-03-04T05:41:32.146Z,0.00
2019-03-04T05:42:32.119Z,0.00
2019-03-04T05:43:32.104Z,0.00
2019-03-04T05:44:32.098Z,0.00
2019-03-04T05:45:32.090Z,0.00
2019-03-04T05:46:32.104Z,0.00
2019-03-04T05:47:32.061Z,0.00
2019-03-04T05:48:32.050Z,0.00
2019-03-04T05:49:32.040Z,0.00
2019-03-04T05:50:32.031Z,0.00
2019-03-04T05:51:32.047Z,0.00
2019-03-04T05:52:32.007Z,0.00
2019-03-04T05:53:31.996Z,0.00
2019-03-04T05:54:31.991Z,0.00
2019-03-04T05:55:31.979Z,0.00
2019-03-04T05:56:31.988Z,0.00
2019-03-04T05:57:31.952Z,0.00
2019-03-04T05:58:31.947Z,0.00
2019-03-04T05:59:31.931Z,0.00
2019-03-04T06:00:31.920Z,0.00
2019-03-04T06:01:31.930Z,0.00
2019-03-04T06:02:31.902Z,0.00
2019-03-04T06:03:31.889Z,0.00
2019-03-04T06:04:31.877Z,0.00
2019-03-04T06:05:31.867Z,0.00
2019-03-04T06:06:31.888Z,5.62
2019-03-04T06:07:31.845Z,5.62
2019-03-04T06:08:31.842Z,5.62
2019-03-04T06:09:31.826Z,5.62
2019-03-04T06:10:31.815Z,11.25
2019-03-04T06:11:31.827Z,11.25
2019-03-04T06:12:31.801Z,11.25
2019-03-04T06:13:31.789Z,16.88
2019-03-04T06:14:31.790Z,22.50
2019-03-04T06:15:31.791Z,22.50
2019-03-04T06:16:31.795Z,22.50
2019-03-04T06:17:31.751Z,28.12
2019-03-04T06:18:31.736Z,28.12
2019-03-04T06:19:31.720Z,22.50
2019-03-04T06:20:31.713Z,16.88
2019-03-04T06:21:31.736Z,22.50
2019-03-04T06:22:31.687Z,22.50
2019-03-04T06:23:31.677Z,28.12
2019-03-04T06:24:31.669Z,33.75
2019-03-04T06:25:31.656Z,33.75
2019-03-04T06:26:31.661Z,33.75
2019-03-04T06:27:31.670Z,39.38
2019-03-04T06:28:31.624Z,50.62
2019-03-04T06:29:31.613Z,50.62
2019-03-04T06:30:31.605Z,50.62
2019-03-04T06:31:31.596Z,45.00
2019-03-04T06:32:31.614Z,39.38
2019-03-04T06:33:31.574Z,39.38
2019-03-04T06:34:31.565Z,39.38
2019-03-04T06:35:31.551Z,39.38
2019-03-04T06:36:31.541Z,39.38
2019-03-04T06:37:31.552Z,39.38
2019-03-04T06:38:31.519Z,28.12
2019-03-04T06:39:31.508Z,28.12
2019-03-04T06:40:31.495Z,28.12
2019-03-04T06:41:31.484Z,33.75
2019-03-04T06:42:31.502Z,50.62
2019-03-04T06:43:31.466Z,67.50
2019-03-04T06:44:31.452Z,78.75
2019-03-04T06:45:31.447Z,95.62
2019-03-04T06:46:31.434Z,106.88
2019-03-04T06:47:31.456Z,118.12
2019-03-04T06:48:31.416Z,112.50
2019-03-04T06:49:31.399Z,135.00
2019-03-04T06:50:31.384Z,168.75
2019-03-04T06:51:31.385Z,180.00
2019-03-04T06:52:31.395Z,146.25
2019-03-04T06:53:31.361Z,129.38
2019-03-04T06:54:31.353Z,118.12
2019-03-04T06:55:31.341Z,84.38
2019-03-04T06:56:31.329Z,67.50
2019-03-04T06:57:31.345Z,50.62
2019-03-04T06:58:31.309Z,45.00
2019-03-04T06:59:31.298Z,39.38
2019-03-04T07:00:31.292Z,33.75
2019-03-04T07:01:31.280Z,33.75
2019-03-04T07:02:31.289Z,28.12
2019-03-04T07:03:31.266Z,22.50
2019-03-04T07:04:31.245Z,22.50
2019-03-04T07:05:31.232Z,16.88
2019-03-04T07:06:31.225Z,11.25
2019-03-04T07:07:31.243Z,11.25
2019-03-04T07:08:31.200Z,33.75
2019-03-04T07:09:31.191Z,45.00
2019-03-04T07:10:31.185Z,56.25
2019-03-04T07:11:31.171Z,67.50
2019-03-04T07:12:31.198Z,78.75
2019-03-04T07:13:31.148Z,84.38
2019-03-04T07:14:31.136Z,90.00
2019-03-04T07:15:31.124Z,84.38
2019-03-04T07:16:32.162Z,78.75
2019-03-04T07:17:31.128Z,73.12
2019-03-04T07:18:31.096Z,67.50
2019-03-04T07:19:31.086Z,73.12
2019-03-04T07:20:31.072Z,78.75
2019-03-04T07:21:31.063Z,90.00
2019-03-04T07:22:31.074Z,106.88
2019-03-04T07:23:31.044Z,118.12
2019-03-04T07:24:31.036Z,112.50
2019-03-04T07:25:31.019Z,95.62
2019-03-04T07:26:31.011Z,95.62
2019-03-04T07:27:31.028Z,112.50
2019-03-04T07:28:30.988Z,140.62
2019-03-04T07:29:30.983Z,118.12
2019-03-04T07:30:30.973Z,118.12
2019-03-04T07:31:30.962Z,118.12
2019-03-04T07:32:30.973Z,140.62
2019-03-04T07:33:30.941Z,180.00
2019-03-04T07:34:30.928Z,196.88
2019-03-04T07:35:30.918Z,213.75
2019-03-04T07:36:30.916Z,258.75
2019-03-04T07:37:30.933Z,286.88
2019-03-04T07:38:30.882Z,286.88
2019-03-04T07:39:30.877Z,270.00
2019-03-04T07:40:30.862Z,247.50
2019-03-04T07:41:30.863Z,208.12
2019-03-04T07:42:31.364Z,140.62
2019-03-04T07:43:30.827Z,95.62
2019-03-04T07:44:30.818Z,84.38
2019-03-04T07:45:30.808Z,67.50
2019-03-04T07:46:30.804Z,56.25
2019-03-04T07:47:31.941Z,39.38
2019-03-04T07:48:31.437Z,33.75
2019-03-04T07:49:30.824Z,39.38
2019-03-04T07:50:30.750Z,61.88
2019-03-04T07:51:30.744Z,90.00
2019-03-04T07:52:30.756Z,112.50
2019-03-04T07:53:30.721Z,129.38
2019-03-04T07:54:30.710Z,135.00
2019-03-04T07:55:30.700Z,140.62
2019-03-04T07:56:30.711Z,135.00
2019-03-04T07:57:30.702Z,123.75
2019-03-04T07:58:30.674Z,129.38
2019-03-04T07:59:30.657Z,163.12
2019-03-04T08:00:30.648Z,191.25
2019-03-04T08:01:30.637Z,185.62
2019-03-04T08:02:30.628Z,157.50
2019-03-04T08:03:30.639Z,129.38
2019-03-04T08:04:30.605Z,129.38
2019-03-04T08:05:30.594Z,151.88
2019-03-04T08:06:30.597Z,157.50
2019-03-04T08:07:30.575Z,157.50
2019-03-04T08:08:30.587Z,163.12
2019-03-04T08:09:30.559Z,225.00
2019-03-04T08:10:30.552Z,309.38
2019-03-04T08:11:30.531Z,343.12
2019-03-04T08:12:30.525Z,331.88
2019-03-04T08:13:30.536Z,309.38
2019-03-04T08:14:30.498Z,292.50
2019-03-04T08:15:30.501Z,270.00
2019-03-04T08:16:30.480Z,281.25
2019-03-04T08:17:30.471Z,281.25
2019-03-04T08:18:30.501Z,298.12
2019-03-04T08:19:30.447Z,309.38
2019-03-04T08:20:30.440Z,315.00
2019-03-04T08:21:30.426Z,354.38
2019-03-04T08:22:30.412Z,405.00
2019-03-04T08:23:30.431Z,450.00
2019-03-04T08:24:30.392Z,416.25
2019-03-04T08:25:30.381Z,360.00
2019-03-04T08:26:30.369Z,337.50
2019-03-04T08:27:30.359Z,292.50
2019-03-04T08:28:30.372Z,292.50
2019-03-04T08:29:30.342Z,309.38
2019-03-04T08:30:30.328Z,320.62
2019-03-04T08:31:30.318Z,365.62
2019-03-04T08:32:30.304Z,416.25
2019-03-04T08:33:30.320Z,472.50
2019-03-04T08:34:31.261Z,776.25
2019-03-04T08:35:30.272Z,1001.25
2019-03-04T08:36:30.263Z,506.25
2019-03-04T08:37:30.253Z,506.25
2019-03-04T08:38:30.265Z,1085.62
2019-03-04T08:39:30.231Z,1130.62
2019-03-04T08:40:30.223Z,1479.38
2019-03-04T08:41:30.208Z,1203.75
2019-03-04T08:42:30.200Z,1653.75
2019-03-04T08:43:30.212Z,1001.25
2019-03-04T08:44:31.128Z,911.25
2019-03-04T08:45:30.224Z,680.62
2019-03-04T08:46:30.159Z,596.25
2019-03-04T08:47:30.147Z,461.25
2019-03-04T08:48:30.174Z,354.38
2019-03-04T08:49:30.123Z,298.12
2019-03-04T08:50:30.117Z,286.88
2019-03-04T08:51:30.102Z,258.75
2019-03-04T08:52:30.096Z,225.00
2019-03-04T08:53:31.003Z,270.00
2019-03-04T08:54:30.068Z,326.25
2019-03-04T08:55:30.056Z,320.62
2019-03-04T08:56:30.046Z,399.38
2019-03-04T08:57:30.040Z,455.62
2019-03-04T08:58:30.051Z,489.38
2019-03-04T08:59:30.007Z,472.50
2019-03-04T09:00:30.000Z,421.88
2019-03-04T09:01:31.344Z,331.88
2019-03-04T09:02:29.981Z,253.12
2019-03-04T09:03:29.996Z,258.75
2019-03-04T09:04:29.955Z,286.88
2019-03-04T09:05:29.947Z,258.75
2019-03-04T09:06:29.936Z,219.38
2019-03-04T09:07:29.930Z,247.50
2019-03-04T09:08:29.940Z,286.88
2019-03-04T09:09:29.897Z,247.50
2019-03-04T09:10:29.892Z,286.88
2019-03-04T09:11:29.883Z,517.50
2019-03-04T09:12:29.865Z,421.88
2019-03-04T09:13:29.888Z,348.75
2019-03-04T09:14:29.854Z,438.75
2019-03-04T09:15:29.829Z,607.50
2019-03-04T09:16:29.817Z,804.38
2019-03-04T09:17:29.861Z,1147.50
2019-03-04T09:18:31.936Z,832.50
2019-03-04T09:19:29.799Z,815.62
2019-03-04T09:20:29.782Z,973.12
2019-03-04T09:21:29.772Z,1659.38
2019-03-04T09:22:29.761Z,866.25
2019-03-04T09:23:29.788Z,731.25
2019-03-04T09:24:29.746Z,489.38
2019-03-04T09:25:30.694Z,427.50
2019-03-04T09:26:29.720Z,483.75
2019-03-04T09:27:29.715Z,455.62
2019-03-04T09:28:29.723Z,585.00
2019-03-04T09:29:29.690Z,635.62
2019-03-04T09:30:29.683Z,1755.00
2019-03-04T09:31:29.675Z,1771.88
2019-03-04T09:32:29.659Z,624.38
2019-03-04T09:33:29.680Z,1890.00
2019-03-04T09:34:29.635Z,635.62
2019-03-04T09:35:29.624Z,973.12
2019-03-04T09:36:29.629Z,607.50
2019-03-04T09:37:29.610Z,1890.00
2019-03-04T09:38:29.624Z,1170.00
2019-03-04T09:39:29.587Z,1906.88
2019-03-04T09:40:29.571Z,956.25
2019-03-04T09:41:29.563Z,1794.38
2019-03-04T09:42:29.551Z,1850.62
2019-03-04T09:43:29.575Z,1816.88
2019-03-04T09:44:29.527Z,691.88
2019-03-04T09:45:38.285Z,781.88
2019-03-04T09:46:30.510Z,1850.62
2019-03-04T09:47:29.498Z,1063.12
2019-03-04T09:48:29.529Z,843.75
2019-03-04T09:49:29.476Z,714.38
2019-03-04T09:50:29.464Z,1923.75
2019-03-04T09:51:29.457Z,1794.38
2019-03-04T09:52:29.446Z,1018.12
2019-03-04T09:53:38.834Z,646.88
2019-03-04T09:54:30.447Z,1873.12
2019-03-04T09:55:29.443Z,1721.25
2019-03-04T09:56:29.399Z,798.75
2019-03-04T09:57:29.392Z,742.50
2019-03-04T09:58:29.380Z,579.38
2019-03-04T09:59:29.397Z,506.25
2019-03-04T10:00:29.368Z,348.75
2019-03-04T10:01:29.349Z,236.25
2019-03-04T10:02:29.339Z,253.12
2019-03-04T10:03:29.329Z,264.38
2019-03-04T10:04:29.344Z,230.62
2019-03-04T10:05:29.305Z,270.00
2019-03-04T10:06:29.292Z,315.00
2019-03-04T10:07:29.294Z,309.38
2019-03-04T10:08:32.955Z,286.88
2019-03-04T10:09:29.330Z,326.25
2019-03-04T10:10:29.252Z,365.62
2019-03-04T10:11:29.243Z,388.12
2019-03-04T10:12:29.236Z,416.25
2019-03-04T10:13:29.222Z,646.88
2019-03-04T10:14:29.240Z,883.12
2019-03-04T10:15:29.207Z,1018.12
2019-03-04T10:16:29.205Z,1029.38
2019-03-04T10:17:29.175Z,1006.88
2019-03-04T10:18:29.171Z,759.38
2019-03-04T10:19:29.182Z,691.88
2019-03-04T10:20:29.147Z,708.75
2019-03-04T10:21:29.142Z,680.62
2019-03-04T10:22:29.130Z,635.62
2019-03-04T10:23:29.115Z,585.00
2019-03-04T10:24:29.130Z,455.62
2019-03-04T10:25:29.093Z,410.62
2019-03-04T10:26:29.079Z,410.62
2019-03-04T10:27:29.072Z,399.38
2019-03-04T10:28:29.064Z,438.75
2019-03-04T10:29:29.078Z,500.62
2019-03-04T10:30:29.055Z,483.75
2019-03-04T10:31:29.028Z,461.25
2019-03-04T10:32:29.021Z,438.75
2019-03-04T10:33:29.012Z,399.38
2019-03-04T10:34:29.083Z,309.38
2019-03-04T10:35:28.995Z,247.50
2019-03-04T10:36:28.976Z,213.75
2019-03-04T10:37:28.983Z,253.12
2019-03-04T10:38:28.962Z,303.75
2019-03-04T10:39:28.970Z,315.00
2019-03-04T10:40:28.933Z,281.25
2019-03-04T10:41:28.949Z,286.88
2019-03-04T10:42:28.913Z,281.25
2019-03-04T10:43:28.902Z,264.38
2019-03-04T10:44:28.915Z,258.75
2019-03-04T10:45:28.880Z,315.00
2019-03-04T10:46:28.867Z,360.00
2019-03-04T10:47:28.859Z,388.12
2019-03-04T10:48:28.851Z,478.12
2019-03-04T10:49:28.871Z,630.00
2019-03-04T10:50:28.824Z,838.12
2019-03-04T10:51:28.813Z,956.25
2019-03-04T10:52:28.806Z,1023.75
2019-03-04T10:53:28.795Z,888.75
2019-03-04T10:54:28.806Z,714.38
2019-03-04T10:55:28.772Z,888.75
2019-03-04T10:56:28.764Z,720.00
2019-03-04T10:57:28.751Z,663.75
2019-03-04T10:58:28.736Z,641.25
2019-03-04T10:59:28.755Z,573.75
2019-03-04T11:00:28.793Z,573.75
2019-03-04T11:01:30.724Z,562.50
2019-03-04T11:02:28.696Z,489.38
2019-03-04T11:03:28.689Z,500.62
2019-03-04T11:04:28.699Z,528.75
2019-03-04T11:05:28.666Z,573.75
2019-03-04T11:06:28.653Z,652.50
2019-03-04T11:07:28.639Z,736.88
2019-03-04T11:08:28.628Z,843.75
2019-03-04T11:09:28.642Z,905.62
2019-03-04T11:10:28.610Z,1023.75
2019-03-04T11:11:30.059Z,1113.75
2019-03-04T11:12:28.584Z,1153.12
2019-03-04T11:13:28.590Z,1265.62
2019-03-04T11:14:28.591Z,1434.38
2019-03-04T11:15:28.555Z,1085.62
2019-03-04T11:16:28.541Z,967.50
2019-03-04T11:17:28.531Z,1006.88
2019-03-04T11:18:28.522Z,1040.62
2019-03-04T11:19:28.547Z,1108.12
2019-03-04T11:20:28.520Z,1141.88
2019-03-04T11:21:28.490Z,1012.50
2019-03-04T11:22:28.470Z,871.88
2019-03-04T11:23:28.468Z,568.12
2019-03-04T11:24:28.453Z,410.62
2019-03-04T11:25:28.471Z,360.00
2019-03-04T11:26:28.430Z,303.75
2019-03-04T11:27:28.421Z,360.00
2019-03-04T11:28:28.416Z,551.25
2019-03-04T11:29:28.406Z,843.75
2019-03-04T11:30:28.427Z,1080.00
2019-03-04T11:31:28.384Z,1012.50
2019-03-04T11:32:28.373Z,928.12
2019-03-04T11:33:28.366Z,1023.75
2019-03-04T11:34:28.526Z,1192.50
2019-03-04T11:35:28.364Z,1350.00
2019-03-04T11:36:28.339Z,1428.75
2019-03-04T11:37:28.338Z,1293.75
2019-03-04T11:38:28.313Z,1147.50
2019-03-04T11:39:28.309Z,995.62
2019-03-04T11:40:28.315Z,928.12
2019-03-04T11:41:28.276Z,787.50
2019-03-04T11:42:28.289Z,646.88
2019-03-04T11:43:28.260Z,511.88
2019-03-04T11:44:28.247Z,444.38
2019-03-04T11:45:28.264Z,534.38
2019-03-04T11:46:28.225Z,517.50
2019-03-04T11:47:28.218Z,607.50
2019-03-04T11:48:28.206Z,708.75
2019-03-04T11:49:28.196Z,680.62
2019-03-04T11:50:28.212Z,708.75
2019-03-04T11:51:28.175Z,663.75
2019-03-04T11:52:28.219Z,658.12
2019-03-04T11:53:28.152Z,562.50
2019-03-04T11:54:28.140Z,461.25
2019-03-04T11:55:28.155Z,405.00
2019-03-04T11:56:28.120Z,393.75
2019-03-04T11:57:28.108Z,331.88
2019-03-04T11:58:28.097Z,247.50
2019-03-04T11:59:28.084Z,202.50
2019-03-04T12:00:28.103Z,146.25
2019-03-04T12:01:28.067Z,101.25
2019-03-04T12:02:28.068Z,78.75
2019-03-04T12:03:28.043Z,78.75
2019-03-04T12:04:28.037Z,73.12
2019-03-04T12:05:28.050Z,56.25
2019-03-04T12:06:28.009Z,33.75
2019-03-04T12:07:27.994Z,28.12
2019-03-04T12:08:27.986Z,33.75
2019-03-04T12:09:27.985Z,39.38
2019-03-04T12:10:27.997Z,50.62
2019-03-04T12:11:37.808Z,56.25
2019-03-04T12:12:28.943Z,67.50
2019-03-04T12:13:27.964Z,78.75
2019-03-04T12:14:27.926Z,112.50
2019-03-04T12:15:27.940Z,157.50
2019-03-04T12:16:27.927Z,275.62
2019-03-04T12:17:27.895Z,455.62
2019-03-04T12:18:27.892Z,613.12
2019-03-04T12:19:28.839Z,691.88
2019-03-04T12:20:27.903Z,731.25
2019-03-04T12:21:27.850Z,748.12
2019-03-04T12:22:27.837Z,675.00
2019-03-04T12:23:27.827Z,528.75
2019-03-04T12:24:27.816Z,495.00
2019-03-04T12:25:27.820Z,483.75
2019-03-04T12:26:27.787Z,500.62
2019-03-04T12:27:27.785Z,596.25
2019-03-04T12:28:27.773Z,765.00
2019-03-04T12:29:27.761Z,742.50
2019-03-04T12:30:27.780Z,894.38
2019-03-04T12:31:28.522Z,1063.12
2019-03-04T12:32:27.734Z,973.12
2019-03-04T12:33:27.726Z,1563.75
2019-03-04T12:34:27.716Z,1046.25
2019-03-04T12:35:27.727Z,894.38
2019-03-04T12:36:27.694Z,894.38
2019-03-04T12:37:27.681Z,990.00
2019-03-04T12:38:27.686Z,990.00
2019-03-04T12:39:27.672Z,956.25
2019-03-04T12:40:27.738Z,1001.25
2019-03-04T12:41:27.649Z,1462.50
2019-03-04T12:42:27.653Z,1946.25
2019-03-04T12:43:27.644Z,1963.12
2019-03-04T12:44:27.620Z,2160.00
2019-03-04T12:45:34.513Z,1850.62
2019-03-04T12:46:28.638Z,1614.38
2019-03-04T12:47:27.587Z,933.75
2019-03-04T12:48:27.569Z,770.62
2019-03-04T12:49:27.552Z,742.50
2019-03-04T12:50:27.575Z,793.12
2019-03-04T12:51:27.531Z,826.88
2019-03-04T12:52:27.528Z,866.25